Jefferson City, Missouri
Current Conditions -  °F | °C
As of 9:08 AM on Saturday 20 Dec 2014 (Local Time) from KJEF Reporting Station
Overcast Overcast  
Wind Chill:   Ceiling: 2000
Heat Index:   Visibility: 7mi
Dew Point:   Wind: 5mph
Humidity: 86%   Direction: 160°SSE
Pressure: 30.26"   Gusts: NA
Location:  38.58°N, 92.18°W
Report Text: KJEF 201508Z 16004KT 7SM SCT009 OVC020 04/02 A3026 RMK AO2 T00390017
Loading
Personal Weather Stations






























Interactive Weather Map New forecast layout! Learn more

10-Day Weather Forecast

Advertisements
Track Severe Weather on mobile